createdAt,value
2017-01-12T00:00:04.564Z,14.02
2017-01-12T00:01:14.306Z,14.09
2017-01-12T00:02:24.074Z,14.25
2017-01-12T00:03:33.799Z,14.36
2017-01-12T00:04:43.508Z,14.4
2017-01-12T00:05:53.661Z,14.43
2017-01-12T00:07:02.950Z,14.68
2017-01-12T00:08:12.727Z,14.65
2017-01-12T00:09:22.452Z,14.68
2017-01-12T00:10:32.613Z,14.7
2017-01-12T00:11:42.338Z,14.78
2017-01-12T00:12:52.087Z,14.88
2017-01-12T00:14:02.304Z,14.98
2017-01-12T00:15:12.029Z,14.98
2017-01-12T00:16:21.746Z,14.95
2017-01-12T00:17:31.031Z,15.07
2017-01-12T00:18:40.752Z,15.1
2017-01-12T00:19:50.517Z,15.14
2017-01-12T00:20:59.793Z,15.1
2017-01-12T00:22:09.535Z,15.19
2017-01-12T00:23:20.128Z,15.2
2017-01-12T00:24:29.840Z,15.16
2017-01-12T00:25:39.177Z,15.23
2017-01-12T00:26:48.902Z,15.29
2017-01-12T00:27:59.055Z,15.31
2017-01-12T00:29:09.212Z,15.34
2017-01-12T00:30:19.370Z,15.36
2017-01-12T00:31:28.713Z,15.28
2017-01-12T00:32:38.887Z,15.44
2017-01-12T00:33:48.608Z,15.43
2017-01-12T00:34:57.889Z,15.47
2017-01-12T00:36:07.610Z,15.41
2017-01-12T00:37:16.935Z,15.53
2017-01-12T00:38:27.092Z,15.53
2017-01-12T00:39:36.805Z,15.5
2017-01-12T00:40:46.538Z,15.57
2017-01-12T00:41:56.255Z,15.59
2017-01-12T00:43:05.580Z,15.47
2017-01-12T00:44:15.740Z,15.62
2017-01-12T00:45:25.455Z,15.6
2017-01-12T00:46:35.176Z,15.65
2017-01-12T00:47:44.461Z,15.67
2017-01-12T00:48:53.793Z,15.68
2017-01-12T00:50:03.523Z,15.68
2017-01-12T00:51:13.244Z,15.69
2017-01-12T00:52:23.405Z,15.71
2017-01-12T00:53:32.690Z,15.72
2017-01-12T00:54:42.463Z,15.72
2017-01-12T00:55:52.192Z,15.82
2017-01-12T00:57:01.481Z,15.71
2017-01-12T00:58:12.075Z,15.8
2017-01-12T00:59:21.796Z,15.83
2017-01-12T01:00:31.572Z,15.75
2017-01-12T01:01:40.855Z,15.83
2017-01-12T01:02:51.019Z,15.83
2017-01-12T01:04:00.740Z,15.89
2017-01-12T01:05:10.025Z,15.87
2017-01-12T01:06:20.002Z,15.89
2017-01-12T01:07:29.287Z,15.89
2017-01-12T01:08:40.321Z,15.89
2017-01-12T01:09:49.607Z,15.89
2017-01-12T01:10:59.331Z,15.78
2017-01-12T01:12:09.544Z,15.86
2017-01-12T01:13:18.825Z,15.94
2017-01-12T01:14:28.986Z,15.9
2017-01-12T01:15:38.705Z,15.93
2017-01-12T01:16:47.997Z,15.89
2017-01-12T01:17:57.334Z,15.96
2017-01-12T01:19:06.615Z,15.94
2017-01-12T01:20:16.336Z,15.92
2017-01-12T01:21:26.497Z,15.94
2017-01-12T01:22:36.226Z,16
2017-01-12T01:23:45.999Z,15.96
2017-01-12T01:24:56.165Z,15.97
2017-01-12T01:26:05.922Z,16
2017-01-12T01:27:15.207Z,15.97
2017-01-12T01:28:24.516Z,15.92
2017-01-12T01:29:33.843Z,15.97
2017-01-12T01:30:43.562Z,16
2017-01-12T01:31:54.156Z,16
2017-01-12T01:33:03.880Z,16.02
2017-01-12T01:34:13.162Z,15.94
2017-01-12T01:35:22.931Z,16.01
2017-01-12T01:36:33.092Z,16
2017-01-12T01:37:42.822Z,15.96
2017-01-12T01:38:52.550Z,15.96
2017-01-12T01:40:02.308Z,15.92
2017-01-12T01:41:11.637Z,15.94
2017-01-12T01:42:21.802Z,16.01
2017-01-12T01:43:31.527Z,15.96
2017-01-12T01:44:41.692Z,15.94
2017-01-12T01:45:51.850Z,16.01
2017-01-12T01:47:02.503Z,15.96
2017-01-12T01:48:12.233Z,16.01
2017-01-12T01:49:21.946Z,16.04
2017-01-12T01:50:31.671Z,16.05
2017-01-12T01:51:41.397Z,15.97
2017-01-12T01:52:50.758Z,15.96
2017-01-12T01:54:01.347Z,15.96
2017-01-12T01:55:11.065Z,16.08
2017-01-12T01:56:21.247Z,16.05
2017-01-12T01:57:30.967Z,16.05
2017-01-12T01:58:40.737Z,16.08
2017-01-12T01:59:50.460Z,16.02
2017-01-12T02:00:59.752Z,15.94
2017-01-12T02:02:09.064Z,16
2017-01-12T02:03:18.346Z,15.97
2017-01-12T02:04:28.147Z,16.02
2017-01-12T02:05:38.313Z,16.05
2017-01-12T02:06:47.594Z,16.01
2017-01-12T02:07:57.759Z,16.07
2017-01-12T02:09:07.045Z,15.97
2017-01-12T02:10:16.381Z,16.05
2017-01-12T02:11:26.535Z,16.02
2017-01-12T02:12:35.813Z,16.04
2017-01-12T02:13:45.534Z,16.09
2017-01-12T02:14:55.691Z,16.05
2017-01-12T02:16:05.460Z,16.07
2017-01-12T02:17:15.181Z,16.11
2017-01-12T02:18:24.467Z,16.05
2017-01-12T02:19:34.192Z,16.01
2017-01-12T02:20:43.922Z,15.97
2017-01-12T02:21:53.702Z,16.05
2017-01-12T02:23:04.028Z,16.09
2017-01-12T02:24:14.217Z,16.05
2017-01-12T02:25:24.378Z,16.08
2017-01-12T02:26:34.095Z,16.02
2017-01-12T02:27:43.897Z,16.07
2017-01-12T02:28:53.650Z,16.04
2017-01-12T02:30:03.376Z,16.08
2017-01-12T02:31:13.540Z,16.04
2017-01-12T02:32:23.273Z,16.02
2017-01-12T02:33:33.083Z,16.04
2017-01-12T02:34:44.136Z,16.02
2017-01-12T02:35:53.865Z,16.05
2017-01-12T02:37:04.034Z,16.04
2017-01-12T02:38:13.760Z,16
2017-01-12T02:39:23.681Z,16.01
2017-01-12T02:40:33.402Z,16.02
2017-01-12T02:41:43.123Z,16.04
2017-01-12T02:42:53.757Z,16.01
2017-01-12T02:44:03.042Z,15.97
2017-01-12T02:45:12.376Z,15.94
2017-01-12T02:46:21.660Z,15.97
2017-01-12T02:47:31.378Z,15.96
2017-01-12T02:48:40.667Z,15.94
2017-01-12T02:49:49.948Z,15.93
2017-01-12T02:50:59.717Z,15.93
2017-01-12T02:52:10.315Z,16
2017-01-12T02:53:20.480Z,16
2017-01-12T02:54:30.201Z,15.97
2017-01-12T02:55:39.974Z,16
2017-01-12T02:56:50.624Z,15.96
2017-01-12T02:57:59.905Z,16.01
2017-01-12T02:59:10.506Z,15.97
2017-01-12T03:00:20.232Z,16.02
2017-01-12T03:01:30.389Z,15.97
2017-01-12T03:02:40.158Z,15.97
2017-01-12T03:03:49.871Z,15.97
2017-01-12T03:05:00.464Z,15.96
2017-01-12T03:06:10.629Z,15.94
2017-01-12T03:07:20.795Z,15.89
2017-01-12T03:08:31.440Z,16.01
2017-01-12T03:09:41.169Z,15.97
2017-01-12T03:10:50.894Z,15.93
2017-01-12T03:12:00.175Z,15.94
2017-01-12T03:13:09.905Z,15.94
2017-01-12T03:14:19.242Z,15.92
2017-01-12T03:15:28.963Z,15.89
2017-01-12T03:16:38.249Z,15.94
2017-01-12T03:17:47.526Z,15.87
2017-01-12T03:18:57.254Z,15.93
2017-01-12T03:20:07.020Z,15.94
2017-01-12T03:21:16.301Z,15.94
2017-01-12T03:22:25.578Z,15.92
2017-01-12T03:23:34.860Z,15.93
2017-01-12T03:24:44.584Z,15.87
2017-01-12T03:25:54.358Z,15.89
2017-01-12T03:27:04.083Z,15.9
2017-01-12T03:28:13.368Z,15.93
2017-01-12T03:29:23.518Z,15.9
2017-01-12T03:30:33.687Z,15.9
2017-01-12T03:31:43.456Z,15.92
2017-01-12T03:32:53.605Z,15.9
2017-01-12T03:34:03.331Z,15.86
2017-01-12T03:35:13.500Z,15.92
2017-01-12T03:36:23.225Z,15.9
2017-01-12T03:37:33.434Z,15.87
2017-01-12T03:38:43.167Z,15.92
2017-01-12T03:39:52.444Z,15.92
2017-01-12T03:41:02.602Z,15.86
2017-01-12T03:42:11.887Z,15.9
2017-01-12T03:43:21.657Z,15.89
2017-01-12T03:44:31.381Z,15.87
2017-01-12T03:45:41.110Z,15.78
2017-01-12T03:46:51.704Z,15.87
2017-01-12T03:48:00.985Z,15.87
2017-01-12T03:49:11.194Z,15.8
2017-01-12T03:50:20.480Z,15.78
2017-01-12T03:51:30.204Z,15.78
2017-01-12T03:52:40.370Z,15.72
2017-01-12T03:53:49.659Z,15.74
2017-01-12T03:55:00.308Z,15.75
2017-01-12T03:56:09.589Z,15.76
2017-01-12T03:57:19.331Z,15.86
2017-01-12T03:58:29.495Z,15.8
2017-01-12T03:59:39.213Z,15.8
2017-01-12T04:00:48.542Z,15.82
2017-01-12T04:01:58.255Z,15.78
2017-01-12T04:03:07.983Z,15.78
2017-01-12T04:04:17.266Z,15.84
2017-01-12T04:05:26.987Z,15.72
2017-01-12T04:06:36.761Z,15.82
2017-01-12T04:07:46.474Z,15.82
2017-01-12T04:08:55.759Z,15.82
2017-01-12T04:10:05.928Z,15.86
2017-01-12T04:11:16.530Z,15.76
2017-01-12T04:12:26.311Z,15.75
2017-01-12T04:13:35.593Z,15.72
2017-01-12T04:14:45.322Z,15.74
2017-01-12T04:15:54.607Z,15.75
2017-01-12T04:17:04.320Z,15.75
2017-01-12T04:18:13.653Z,15.71
2017-01-12T04:19:22.939Z,15.72
2017-01-12T04:20:33.100Z,15.71
2017-01-12T04:21:43.257Z,15.69
2017-01-12T04:22:52.982Z,15.69
2017-01-12T04:24:03.196Z,15.68
2017-01-12T04:25:12.482Z,15.68
2017-01-12T04:26:22.210Z,15.69
2017-01-12T04:27:31.932Z,15.68
2017-01-12T04:28:42.089Z,15.67
2017-01-12T04:29:51.419Z,15.68
2017-01-12T04:31:01.139Z,15.62
2017-01-12T04:32:10.861Z,15.68
2017-01-12T04:33:21.022Z,15.64
2017-01-12T04:34:31.183Z,15.65
2017-01-12T04:35:40.964Z,15.67
2017-01-12T04:36:50.245Z,15.69
2017-01-12T04:38:00.410Z,15.62
2017-01-12T04:39:11.011Z,15.68
2017-01-12T04:40:20.733Z,15.67
2017-01-12T04:41:30.070Z,15.65
2017-01-12T04:42:39.800Z,15.64
2017-01-12T04:43:49.080Z,15.64
2017-01-12T04:44:59.233Z,15.65
2017-01-12T04:46:08.522Z,15.64
2017-01-12T04:47:18.292Z,15.64
2017-01-12T04:48:28.448Z,15.65
2017-01-12T04:49:38.165Z,15.67
2017-01-12T04:50:48.322Z,15.62
2017-01-12T04:51:57.596Z,15.65
2017-01-12T04:53:08.253Z,15.64
2017-01-12T04:54:17.970Z,15.64
2017-01-12T04:55:28.135Z,15.62
2017-01-12T04:56:37.412Z,15.6
2017-01-12T04:57:47.134Z,15.65
2017-01-12T04:58:56.470Z,15.64
2017-01-12T05:00:05.760Z,15.54
2017-01-12T05:01:15.481Z,15.65
2017-01-12T05:02:25.226Z,15.59
2017-01-12T05:03:34.507Z,15.64
2017-01-12T05:04:44.876Z,15.6
2017-01-12T05:05:54.189Z,15.62
2017-01-12T05:07:03.906Z,15.57
2017-01-12T05:08:13.620Z,15.56
2017-01-12T05:09:22.901Z,15.49
2017-01-12T05:10:33.114Z,15.6
2017-01-12T05:11:43.284Z,15.51
2017-01-12T05:12:53.449Z,15.6
2017-01-12T05:14:03.170Z,15.56
2017-01-12T05:15:13.327Z,15.57
2017-01-12T05:16:22.664Z,15.54
2017-01-12T05:17:31.945Z,15.49
2017-01-12T05:18:41.671Z,15.54
2017-01-12T05:19:50.948Z,15.57
2017-01-12T05:21:01.113Z,15.54
2017-01-12T05:22:10.449Z,15.53
2017-01-12T05:23:20.175Z,15.49
2017-01-12T05:24:29.464Z,15.54
2017-01-12T05:25:39.182Z,15.46
2017-01-12T05:26:48.899Z,15.56
2017-01-12T05:27:58.676Z,15.51
2017-01-12T05:29:07.957Z,15.54
2017-01-12T05:30:17.702Z,15.49
2017-01-12T05:31:26.995Z,15.5
2017-01-12T05:32:36.276Z,15.5
2017-01-12T05:33:46.486Z,15.49
2017-01-12T05:34:57.087Z,15.54
2017-01-12T05:36:07.688Z,15.54
2017-01-12T05:37:17.416Z,15.44
2017-01-12T05:38:27.590Z,15.51
2017-01-12T05:39:36.920Z,15.51
2017-01-12T05:40:46.653Z,15.44
2017-01-12T05:41:56.818Z,15.49
2017-01-12T05:43:06.975Z,15.53
2017-01-12T05:44:16.693Z,15.43
2017-01-12T05:45:26.470Z,15.44
2017-01-12T05:46:35.755Z,15.41
2017-01-12T05:47:45.036Z,15.44
2017-01-12T05:48:54.761Z,15.36
2017-01-12T05:50:04.490Z,15.47
2017-01-12T05:51:13.859Z,15.44
2017-01-12T05:52:23.145Z,15.46
2017-01-12T05:53:33.302Z,15.41
2017-01-12T05:54:42.583Z,15.47
2017-01-12T05:55:52.299Z,15.43
2017-01-12T05:57:01.641Z,15.39
2017-01-12T05:58:11.374Z,15.43
2017-01-12T05:59:21.099Z,15.44
2017-01-12T06:00:30.380Z,15.38
2017-01-12T06:01:40.097Z,15.44
2017-01-12T06:02:49.874Z,15.43
2017-01-12T06:04:00.480Z,15.44
2017-01-12T06:05:09.757Z,15.41
2017-01-12T06:06:19.486Z,15.44
2017-01-12T06:07:28.771Z,15.43
2017-01-12T06:08:38.981Z,15.44
2017-01-12T06:09:48.257Z,15.43
2017-01-12T06:10:57.538Z,15.38
2017-01-12T06:12:07.696Z,15.35
2017-01-12T06:13:17.861Z,15.43
2017-01-12T06:14:27.634Z,15.35
2017-01-12T06:15:36.919Z,15.36
2017-01-12T06:16:46.200Z,15.35
2017-01-12T06:17:55.930Z,15.34
2017-01-12T06:19:05.683Z,15.28
2017-01-12T06:20:15.024Z,15.28
2017-01-12T06:21:24.745Z,15.35
2017-01-12T06:22:34.458Z,15.38
2017-01-12T06:23:44.179Z,15.29
2017-01-12T06:24:54.329Z,15.35
2017-01-12T06:26:04.102Z,15.31
2017-01-12T06:27:14.259Z,15.29
2017-01-12T06:28:23.976Z,15.31
2017-01-12T06:29:34.145Z,15.31
2017-01-12T06:30:43.870Z,15.31
2017-01-12T06:31:54.083Z,15.28
2017-01-12T06:33:04.236Z,15.29
2017-01-12T06:34:13.970Z,15.34
2017-01-12T06:35:23.255Z,15.32
2017-01-12T06:36:32.551Z,15.32
2017-01-12T06:37:41.913Z,15.31
2017-01-12T06:38:52.506Z,15.31
2017-01-12T06:40:01.799Z,15.28
2017-01-12T06:41:11.960Z,15.21
2017-01-12T06:42:21.677Z,15.28
2017-01-12T06:43:31.456Z,15.28
2017-01-12T06:44:40.735Z,15.36
2017-01-12T06:45:50.888Z,15.31
2017-01-12T06:47:00.181Z,15.28
2017-01-12T06:48:09.906Z,15.31
2017-01-12T06:49:21.015Z,15.31
2017-01-12T06:50:30.736Z,15.25
2017-01-12T06:51:40.469Z,15.31
2017-01-12T06:52:50.198Z,15.31
2017-01-12T06:54:00.364Z,15.31
2017-01-12T06:55:10.132Z,15.31
2017-01-12T06:56:19.853Z,15.2
2017-01-12T06:57:29.130Z,15.27
2017-01-12T06:58:38.851Z,15.19
2017-01-12T06:59:48.613Z,15.14
2017-01-12T07:00:58.413Z,15.27
2017-01-12T07:02:09.024Z,15.2
2017-01-12T07:03:19.171Z,15.27
2017-01-12T07:04:28.488Z,15.23
2017-01-12T07:05:38.649Z,15.25
2017-01-12T07:06:48.130Z,15.19
2017-01-12T07:07:57.851Z,15.13
2017-01-12T07:09:08.468Z,15.13
2017-01-12T07:10:18.197Z,15.21
2017-01-12T07:11:27.910Z,15.2
2017-01-12T07:12:37.679Z,15.13
2017-01-12T07:13:47.404Z,15.2
2017-01-12T07:14:56.686Z,15.19
2017-01-12T07:16:06.407Z,15.13
2017-01-12T07:17:16.564Z,15.16
2017-01-12T07:18:26.337Z,15.13
2017-01-12T07:19:36.939Z,15.2
2017-01-12T07:20:47.552Z,15.13
2017-01-12T07:21:57.744Z,15.17
2017-01-12T07:23:07.894Z,15.16
2017-01-12T07:24:17.663Z,15.17
2017-01-12T07:25:27.389Z,15.19
2017-01-12T07:26:37.982Z,15.16
2017-01-12T07:27:47.295Z,15.16
2017-01-12T07:28:57.892Z,15.16
2017-01-12T07:30:07.222Z,15.13
2017-01-12T07:31:16.503Z,15.19
2017-01-12T07:32:25.784Z,15.27
2017-01-12T07:33:35.946Z,15.2
2017-01-12T07:34:45.667Z,15.16
2017-01-12T07:35:54.996Z,15.17
2017-01-12T07:37:04.713Z,15.14
2017-01-12T07:38:13.994Z,15.17
2017-01-12T07:39:23.271Z,15.14
2017-01-12T07:40:32.985Z,15.19
2017-01-12T07:41:42.318Z,15.28
2017-01-12T07:42:51.607Z,15.19
2017-01-12T07:44:01.328Z,15.2
2017-01-12T07:45:11.485Z,15.16
2017-01-12T07:46:21.211Z,15.2
2017-01-12T07:47:30.984Z,15.19
2017-01-12T07:48:41.577Z,15.14
2017-01-12T07:49:51.727Z,15.14
2017-01-12T07:51:01.444Z,15.16
2017-01-12T07:52:11.609Z,15.17
2017-01-12T07:53:21.382Z,15.19
2017-01-12T07:54:31.543Z,15.17
2017-01-12T07:55:40.830Z,15.19
2017-01-12T07:56:51.422Z,15.17
2017-01-12T07:58:00.708Z,15.25
2017-01-12T07:59:10.917Z,15.14
2017-01-12T08:00:21.082Z,15.1
2017-01-12T08:01:30.811Z,15.19
2017-01-12T08:02:40.980Z,15.14
2017-01-12T08:03:50.702Z,15.17
2017-01-12T08:05:00.467Z,15.03
2017-01-12T08:06:10.184Z,15.06
2017-01-12T08:07:19.474Z,15.16
2017-01-12T08:08:29.195Z,15.17
2017-01-12T08:09:39.352Z,15.13
2017-01-12T08:10:50.002Z,14.92
2017-01-12T08:12:00.158Z,14.69
2017-01-12T08:13:09.448Z,14.46
2017-01-12T08:14:18.733Z,14.17
2017-01-12T08:15:28.454Z,14.06
2017-01-12T08:16:38.907Z,13.96
2017-01-12T08:17:48.196Z,13.78
2017-01-12T08:18:57.961Z,13.55
2017-01-12T08:20:08.639Z,13.42
2017-01-12T08:21:17.931Z,13.44
2017-01-12T08:22:30.417Z,13.33
2017-01-12T08:23:44.506Z,13.36
2017-01-12T08:24:54.677Z,13.3
2017-01-12T08:26:05.428Z,13.28
2017-01-12T08:27:18.978Z,13.25
2017-01-12T08:28:31.979Z,13.19
2017-01-12T08:29:41.705Z,13.05
2017-01-12T08:30:52.902Z,12.97
2017-01-12T08:32:03.875Z,12.89
2017-01-12T08:33:13.644Z,12.83
2017-01-12T08:34:24.738Z,12.75
2017-01-12T08:35:35.363Z,12.74
2017-01-12T08:36:45.172Z,12.67
2017-01-12T08:37:55.329Z,12.62
2017-01-12T08:39:05.535Z,12.64
2017-01-12T08:40:16.204Z,12.68
2017-01-12T08:41:27.397Z,12.59
2017-01-12T08:42:36.702Z,12.57
2017-01-12T08:43:47.820Z,12.56
2017-01-12T08:44:58.973Z,12.59
2017-01-12T08:46:09.138Z,12.56
2017-01-12T08:47:21.075Z,12.65
2017-01-12T08:48:32.269Z,12.56
2017-01-12T08:49:42.438Z,12.53
2017-01-12T08:50:53.507Z,12.57
2017-01-12T08:52:03.685Z,12.56
2017-01-12T08:53:13.406Z,12.56
2017-01-12T08:54:23.539Z,12.5
2017-01-12T08:55:36.041Z,12.52
2017-01-12T08:56:45.378Z,12.41
2017-01-12T08:57:55.095Z,12.34
2017-01-12T08:59:05.132Z,12.41
2017-01-12T09:00:16.901Z,12.37
2017-01-12T09:01:27.671Z,12.34
2017-01-12T09:02:37.884Z,12.31
2017-01-12T09:03:47.165Z,12.34
2017-01-12T09:04:56.883Z,12.37
2017-01-12T09:06:06.176Z,12.27
2017-01-12T09:07:16.324Z,12.21
2017-01-12T09:08:26.094Z,12.23
2017-01-12T09:09:36.251Z,12.28
2017-01-12T09:10:46.409Z,12.23
2017-01-12T09:11:57.338Z,12.32
2017-01-12T09:13:09.731Z,12.59
2017-01-12T09:14:21.360Z,12.87
2017-01-12T09:15:31.078Z,13.1
2017-01-12T09:16:42.691Z,13.29
2017-01-12T09:17:53.372Z,13.55
2017-01-12T09:19:04.469Z,13.69
2017-01-12T09:20:15.702Z,13.96
2017-01-12T09:21:24.984Z,14
2017-01-12T09:22:36.377Z,14.17
2017-01-12T09:23:48.370Z,14.29
2017-01-12T09:24:58.528Z,14.35
2017-01-12T09:26:09.162Z,14.51
2017-01-12T09:27:19.454Z,14.64
2017-01-12T09:28:30.499Z,14.7
2017-01-12T09:29:40.232Z,14.8
2017-01-12T09:30:49.774Z,14.94
2017-01-12T09:32:01.619Z,15.1
2017-01-12T09:33:11.944Z,15.17
2017-01-12T09:34:21.677Z,15.28
2017-01-12T09:35:32.783Z,15.28
2017-01-12T09:36:44.344Z,15.43
2017-01-12T09:37:54.117Z,15.57
2017-01-12T09:39:04.546Z,15.64
2017-01-12T09:40:15.583Z,15.74
2017-01-12T09:41:25.529Z,15.75
2017-01-12T09:42:35.682Z,15.93
2017-01-12T09:43:45.744Z,15.93
2017-01-12T09:44:55.032Z,16.15
2017-01-12T09:46:04.321Z,16.14
2017-01-12T09:47:14.046Z,16.27
2017-01-12T09:48:25.972Z,16.31
2017-01-12T09:49:37.209Z,16.35
2017-01-12T09:50:47.375Z,16.41
2017-01-12T09:51:58.275Z,16.48
2017-01-12T09:53:07.757Z,16.61
2017-01-12T09:54:17.846Z,16.61
2017-01-12T09:55:27.640Z,16.76
2017-01-12T09:56:41.728Z,16.79
2017-01-12T09:57:52.482Z,16.91
2017-01-12T09:59:02.215Z,16.98
2017-01-12T10:00:13.932Z,17.07
2017-01-12T10:01:25.630Z,17.11
2017-01-12T10:02:36.901Z,17.16
2017-01-12T10:03:46.628Z,17.21
2017-01-12T10:04:58.561Z,17.26
2017-01-12T10:06:08.862Z,17.36
2017-01-12T10:07:18.203Z,17.37
2017-01-12T10:08:29.189Z,17.37
2017-01-12T10:09:41.630Z,17.41
2017-01-12T10:10:51.819Z,17.43
2017-01-12T10:12:03.324Z,17.49
2017-01-12T10:13:18.253Z,17.62
2017-01-12T10:14:29.231Z,17.66
2017-01-12T10:15:38.960Z,17.71
2017-01-12T10:16:48.685Z,17.68
2017-01-12T10:17:58.846Z,17.77
2017-01-12T10:19:08.628Z,17.78
2017-01-12T10:20:18.361Z,17.86
2017-01-12T10:21:27.650Z,17.97
2017-01-12T10:22:36.931Z,18.03
2017-01-12T10:23:47.096Z,17.96
2017-01-12T10:24:56.886Z,18.02
2017-01-12T10:26:06.623Z,18.03
2017-01-12T10:27:15.908Z,18.03
2017-01-12T10:28:25.193Z,18.12
2017-01-12T10:29:34.922Z,18.21
2017-01-12T10:30:44.867Z,18.25
2017-01-12T10:31:54.152Z,18.2
2017-01-12T10:33:03.886Z,18.32
2017-01-12T10:34:13.615Z,18.39
2017-01-12T10:35:23.344Z,18.35
2017-01-12T10:36:33.509Z,18.48
2017-01-12T10:37:42.802Z,18.48
2017-01-12T10:38:52.531Z,18.51
2017-01-12T10:40:04.640Z,18.52
2017-01-12T10:41:16.969Z,18.57
2017-01-12T10:42:29.771Z,18.66
2017-01-12T10:43:42.628Z,18.67
2017-01-12T10:44:54.944Z,18.72
2017-01-12T10:46:06.918Z,18.8
2017-01-12T10:47:18.723Z,18.87
2017-01-12T10:48:30.736Z,18.9
2017-01-12T10:49:40.029Z,18.88
2017-01-12T10:50:52.455Z,18.81
2017-01-12T10:52:04.643Z,18.8
2017-01-12T10:53:14.852Z,18.9
2017-01-12T10:54:24.138Z,18.92
2017-01-12T10:55:34.303Z,18.95
2017-01-12T10:56:43.596Z,19
2017-01-12T10:57:52.885Z,19.04
2017-01-12T10:59:02.218Z,19.08
2017-01-12T11:00:11.508Z,19.07
2017-01-12T11:01:22.128Z,19.04
2017-01-12T11:02:31.853Z,19.02
2017-01-12T11:03:42.023Z,19.16
2017-01-12T11:04:51.375Z,19.11
2017-01-12T11:06:02.000Z,19.13
2017-01-12T11:07:11.753Z,19.14
2017-01-12T11:08:21.094Z,19.14
2017-01-12T11:09:30.383Z,19.25
2017-01-12T11:10:39.724Z,19.25
2017-01-12T11:11:49.017Z,19.29
2017-01-12T11:12:58.742Z,19.25
2017-01-12T11:14:08.916Z,19.32
2017-01-12T11:15:19.076Z,19.28
2017-01-12T11:16:28.897Z,19.43
2017-01-12T11:17:38.626Z,19.44
2017-01-12T11:18:48.799Z,19.48
2017-01-12T11:19:58.092Z,19.58
2017-01-12T11:21:07.829Z,19.55
2017-01-12T11:22:18.046Z,19.61
2017-01-12T11:23:27.779Z,19.65
2017-01-12T11:24:37.504Z,19.65
2017-01-12T11:25:47.664Z,19.69
2017-01-12T11:26:57.385Z,19.81
2017-01-12T11:28:07.742Z,19.81
2017-01-12T11:29:17.472Z,19.87
2017-01-12T11:30:27.196Z,19.8
2017-01-12T11:31:36.481Z,19.88
2017-01-12T11:32:46.218Z,20.05
2017-01-12T11:33:55.556Z,19.99
2017-01-12T11:35:04.849Z,19.99
2017-01-12T11:36:14.137Z,19.92
2017-01-12T11:37:23.874Z,19.98
2017-01-12T11:38:34.491Z,19.92
2017-01-12T11:39:44.265Z,20.01
2017-01-12T11:40:54.013Z,19.99
2017-01-12T11:42:04.617Z,19.94
2017-01-12T11:43:14.343Z,19.87
2017-01-12T11:44:24.508Z,19.78
2017-01-12T11:45:34.721Z,19.81
2017-01-12T11:46:44.914Z,19.81
2017-01-12T11:47:54.639Z,19.76
2017-01-12T11:49:04.364Z,19.76
2017-01-12T11:50:14.105Z,19.74
2017-01-12T11:51:23.878Z,19.8
2017-01-12T11:52:33.603Z,19.86
2017-01-12T11:53:42.900Z,19.74
2017-01-12T11:54:52.637Z,19.71
2017-01-12T11:56:03.259Z,19.73
2017-01-12T11:57:13.158Z,19.71
2017-01-12T11:58:22.891Z,19.76
2017-01-12T11:59:34.388Z,19.86
2017-01-12T12:00:45.437Z,19.8
2017-01-12T12:01:55.605Z,19.8
2017-01-12T12:03:05.824Z,19.84
2017-01-12T12:04:15.111Z,19.86
2017-01-12T12:05:24.404Z,19.81
2017-01-12T12:06:33.697Z,19.96
2017-01-12T12:07:43.422Z,19.96
2017-01-12T12:08:53.203Z,19.94
2017-01-12T12:10:02.968Z,19.96
2017-01-12T12:11:13.137Z,19.84
2017-01-12T12:12:22.874Z,19.88
2017-01-12T12:13:33.027Z,19.78
2017-01-12T12:14:42.804Z,19.98
2017-01-12T12:15:52.540Z,19.83
2017-01-12T12:17:03.810Z,19.91
2017-01-12T12:18:14.411Z,19.8
2017-01-12T12:19:23.780Z,19.78
2017-01-12T12:20:33.329Z,19.86
2017-01-12T12:21:43.182Z,19.84
2017-01-12T12:22:53.323Z,19.8
2017-01-12T12:24:03.048Z,19.78
2017-01-12T12:25:14.333Z,19.73
2017-01-12T12:26:24.126Z,19.78
2017-01-12T12:27:33.859Z,19.8
2017-01-12T12:28:44.092Z,19.78
2017-01-12T12:29:54.710Z,19.76
2017-01-12T12:31:05.599Z,19.8
2017-01-12T12:32:15.593Z,19.73
2017-01-12T12:33:25.102Z,19.77
2017-01-12T12:34:34.827Z,19.71
2017-01-12T12:35:45.112Z,19.71
2017-01-12T12:36:54.501Z,19.65
2017-01-12T12:38:04.395Z,19.73
2017-01-12T12:39:14.367Z,19.71
2017-01-12T12:40:24.416Z,19.66
2017-01-12T12:41:35.246Z,19.65
2017-01-12T12:42:45.199Z,19.55
2017-01-12T12:43:54.532Z,19.51
2017-01-12T12:45:04.254Z,19.58
2017-01-12T12:46:13.547Z,19.55
2017-01-12T12:47:23.276Z,19.56
2017-01-12T12:48:33.713Z,19.63
2017-01-12T12:49:44.022Z,19.62
2017-01-12T12:50:53.751Z,19.69
2017-01-12T12:52:04.353Z,19.66
2017-01-12T12:53:14.406Z,19.54
2017-01-12T12:54:23.791Z,19.55
2017-01-12T12:55:33.133Z,19.58
2017-01-12T12:56:42.770Z,19.54
2017-01-12T12:57:52.511Z,19.51
2017-01-12T12:59:02.240Z,19.59
2017-01-12T13:00:12.401Z,19.62
2017-01-12T13:01:22.174Z,19.56
2017-01-12T13:02:31.467Z,19.61
2017-01-12T13:03:40.756Z,19.71
2017-01-12T13:04:51.250Z,19.69
2017-01-12T13:06:00.851Z,19.74
2017-01-12T13:07:10.632Z,19.68
2017-01-12T13:08:20.366Z,19.73
2017-01-12T13:09:30.091Z,19.81
2017-01-12T13:10:40.036Z,19.8
2017-01-12T13:11:51.118Z,19.83
2017-01-12T13:13:00.899Z,19.91
2017-01-12T13:14:11.469Z,20.01
2017-01-12T13:15:21.737Z,19.81
2017-01-12T13:16:33.463Z,19.96
2017-01-12T13:17:44.444Z,20.03
2017-01-12T13:18:54.518Z,20.05
2017-01-12T13:20:04.243Z,20.06
2017-01-12T13:21:13.537Z,19.98
2017-01-12T13:22:23.297Z,19.96
2017-01-12T13:23:32.579Z,20.01
2017-01-12T13:24:43.112Z,20.01
2017-01-12T13:25:52.845Z,19.98
2017-01-12T13:27:02.579Z,19.95
2017-01-12T13:28:13.380Z,20.06
2017-01-12T13:29:23.561Z,20.1
2017-01-12T13:30:33.338Z,20.2
2017-01-12T13:31:42.635Z,20.14
2017-01-12T13:32:52.372Z,20.1
2017-01-12T13:34:01.666Z,20.28
2017-01-12T13:35:11.407Z,20.31
2017-01-12T13:36:22.180Z,20.24
2017-01-12T13:37:31.865Z,20.21
2017-01-12T13:38:41.470Z,20.32
2017-01-12T13:39:51.636Z,20.35
2017-01-12T13:41:01.809Z,20.32
2017-01-12T13:42:12.246Z,20.32
2017-01-12T13:43:21.539Z,20.47
2017-01-12T13:44:31.268Z,20.5
2017-01-12T13:45:41.566Z,20.42
2017-01-12T13:46:51.815Z,20.42
2017-01-12T13:48:01.735Z,20.43
2017-01-12T13:49:11.029Z,20.42
2017-01-12T13:50:20.314Z,20.5
2017-01-12T13:51:29.604Z,20.61
2017-01-12T13:52:40.697Z,20.59
2017-01-12T13:53:50.349Z,20.58
2017-01-12T13:55:01.171Z,20.59
2017-01-12T13:56:12.204Z,20.61
2017-01-12T13:57:21.717Z,20.57
2017-01-12T13:58:31.390Z,20.59
2017-01-12T13:59:41.279Z,20.69
2017-01-12T14:00:51.005Z,20.66
2017-01-12T14:02:02.082Z,20.64
2017-01-12T14:03:11.767Z,20.64
2017-01-12T14:04:22.936Z,20.67
2017-01-12T14:05:35.545Z,20.69
2017-01-12T14:06:45.270Z,20.64
2017-01-12T14:07:54.560Z,20.67
2017-01-12T14:09:04.741Z,20.69
2017-01-12T14:10:14.357Z,20.69
2017-01-12T14:11:23.919Z,20.61
2017-01-12T14:12:35.077Z,20.66
2017-01-12T14:13:45.245Z,20.72
2017-01-12T14:14:55.975Z,20.67
2017-01-12T14:16:06.028Z,20.67
2017-01-12T14:17:16.537Z,20.58
2017-01-12T14:18:26.263Z,20.67
2017-01-12T14:19:35.553Z,20.62
2017-01-12T14:20:46.010Z,20.59
2017-01-12T14:21:56.619Z,20.59
2017-01-12T14:23:06.281Z,20.61
2017-01-12T14:24:16.014Z,20.55
2017-01-12T14:25:25.719Z,20.61
2017-01-12T14:26:36.124Z,20.55
2017-01-12T14:27:46.294Z,20.61
2017-01-12T14:28:55.796Z,20.58
2017-01-12T14:30:05.969Z,20.57
2017-01-12T14:31:15.254Z,20.58
2017-01-12T14:32:24.983Z,20.55
2017-01-12T14:33:34.717Z,20.52
2017-01-12T14:34:44.058Z,20.62
2017-01-12T14:35:53.583Z,20.57
2017-01-12T14:37:03.736Z,20.58
2017-01-12T14:38:14.006Z,20.59
2017-01-12T14:39:24.175Z,20.57
2017-01-12T14:40:35.428Z,20.57
2017-01-12T14:41:45.726Z,20.59
2017-01-12T14:42:56.827Z,20.58
2017-01-12T14:44:06.120Z,20.57
2017-01-12T14:45:15.410Z,20.51
2017-01-12T14:46:25.487Z,20.5
2017-01-12T14:47:35.332Z,20.5
2017-01-12T14:48:45.273Z,20.5
2017-01-12T14:49:54.663Z,20.39
2017-01-12T14:51:03.984Z,20.42
2017-01-12T14:52:13.765Z,20.39
2017-01-12T14:53:23.539Z,20.41
2017-01-12T14:54:33.064Z,20.47
2017-01-12T14:55:42.798Z,20.39
2017-01-12T14:56:52.523Z,20.32
2017-01-12T14:58:02.737Z,20.29
2017-01-12T14:59:12.038Z,20.36
2017-01-12T15:00:22.643Z,20.38
2017-01-12T15:01:32.364Z,20.29
2017-01-12T15:02:42.762Z,20.29
2017-01-12T15:03:53.423Z,20.31